Terminal Aerodrome Forecast
Issued by NWS Raleigh/Durham, NC

Home | Current Version | Previous Version | Text Only | Print | Product List | Glossary On
Versions: 1 2 3 4 5 6 7 8 9 10 11 12 13 14 15 16 17 18 19 20 21 22 23 24 25 26 27 28 29 30 31 32 33 34 35 36 37 38 39 40 41
000
FTUS42 KRAH 010531
TAFGSO
TAF
KGSO 010531Z 0106/0206 04004KT 6SM -RA BR SCT012 BKN035 OVC060
      TEMPO 0106/0109 4SM -RA BR BKN012
     FM010900 03005KT 2SM RA BR OVC005
     FM011500 05008KT P6SM VCSH SCT020 OVC060
     FM012100 05007KT 4SM -RA BR OVC020=

USA.gov is the U.S. government's official web portal to all federal, state and local government web resources and services.